Custom file does not exist C:\wdisplay\webfiles\testtags.txt - Nearby METAR Reports
   No requiere especial atencion con respecto al clima.   -   No hay Alarmas

Informes de METAR cercanos

 

LEXJ - Santander/Parayas, Spain
Distance from station: ESE 6km
Actualización: 10/12/2018 07:30
Muy nuboso
Muy nuboso
 Viento del OSO
Viento: OSO 4 km/h
Temperatura: 10°C
Rocío: 8°C
Humedad: 88%
Barómetro: 1034 hPa
Clouds: Muy nuboso
Visibility: 10 km
Cloud details: Few Clouds 762 m
Muy nuboso 1219 m
2018/12/10 06:30 LEXJ 100630Z 24002KT 9999 FEW025 BKN040 10/08 Q1034
LEBB - Bilbao/Sondica, Spain
Distance from station: ESE 80km
Actualización: 10/12/2018 07:30
Muy nuboso
Muy nuboso
 Viento del varies
Viento: varies 4 km/h
Temperatura: 11°C
Rocío: 10°C
Humedad: 94%
Barómetro: 1034 hPa
Clouds: Muy nuboso
Visibility: 10 km
Cloud details: Muy nuboso 1372 m
2018/12/10 06:30 LEBB 100630Z VRB02KT 9999 BKN045 11/10 Q1034 NOSIG
 
LEBL - Barcelona Airpor, Spain
Distance from station: ESE 726km
Actualización: 10/12/2018 07:30
Few Clouds
Few Clouds
 Viento del NNO
Viento: NNO 15 km/h
Temperatura: 9°C
Wind Chill: 7°C
Rocío: 5°C
Humedad: 76%
Barómetro: 1028 hPa
Clouds: Few Clouds
Visibility: 10 km
Cloud details: Few Clouds 1524 m
2018/12/10 06:30 LEBL 100630Z 33008KT 9999 FEW050 09/05 Q1028 NOSIG
LEMD - Madrid/Barajas, Spain
Distance from station: S 325km
Actualización: 10/12/2018 07:30
Despejado
Despejado
 Viento del N
Viento: N 6 km/h
Temperatura: 0°C
Rocío: 0°C
Humedad: 100%
Barómetro: 1030 hPa
Resumen: Despejado
Visibility: greater than 10 km
2018/12/10 06:30 LEMD 100630Z 35003KT CAVOK M00/M00 Q1030 NOSIG
 
LPPT - Lisbon/Portela, Portugal
Distance from station: SO 663km
Actualización: 10/12/2018 07:30
Despejado
Despejado
 Viento del NE
Viento: NE 15 km/h
Temperatura: 12°C
Rocío: 10°C
Humedad: 88%
Barómetro: 1027 hPa
Resumen: Despejado
Visibility: greater than 10 km
2018/12/10 06:30 LPPT 100630Z 04008KT CAVOK 12/10 Q1027
LECO - La Coruna/Alvedr, Spain
Distance from station: O 349km
Actualización: 10/12/2018 07:30
Patches of fog, Parcialmente nuboso
Patches of fog, Parcialmente nuboso
 Viento del S
Viento: S 9 km/h
Temperatura: 3°C
Wind Chill: 0°C
Rocío: 3°C
Humedad: 100%
Barómetro: 1031 hPa
Resumen: Patches of Fog
Clouds: Parcialmente nuboso
Visibility: 7 km
2018/12/10 06:30 LECO 100630Z 19005KT 7000 0300E R21/P2000 R03/0650D BCFG NSC 03/03 Q1031 TEMPO 0350 FG
 
LEST - Santiago/Labacol, Spain
Distance from station: O 358km
Actualización: 10/12/2018 07:30
Few Clouds
Few Clouds
 Viento del E
Viento: E 7 km/h
Temperatura: 6°C
Wind Chill: 4°C
Rocío: 4°C
Humedad: 87%
Barómetro: 1030 hPa
Clouds: Few Clouds
Visibility: 8 km
Cloud details: Few Clouds 61 m
2018/12/10 06:30 LEST 100630Z 09004KT 060V120 8000 FEW002 06/04 Q1030 NOSIG
EBBR - Brussels International Airport, Belgium
Distance from station: O 1339km
Actualización: 10/12/2018 07:20
Despejado
Despejado
 Viento del OSO
Viento: OSO 15 km/h
Temperatura: 5°C
Wind Chill: 2°C
Rocío: 2°C
Humedad: 81%
Barómetro: 1022 hPa
Resumen: Despejado
Visibility: greater than 10 km
2018/12/10 06:20 EBBR 100620Z 25008KT CAVOK 05/02 Q1022 NOSIG